Time,TemperatureF,DewpointF,PressureIn,WindDirection,WindDirectionDegrees,WindSpeedMPH,WindSpeedGustMPH,Humidity,HourlyPrecipIn,Conditions,Clouds,dailyrainin,SoftwareType,DateUTC
2013-05-05 00:00:00,32.1,29.8,30.49,SE,133,0.0,22.0,91,0.00,,,0.00,Wunderground v.1.15,2013-05-05 03:00:00,
2013-05-05 00:10:00,31.8,29.7,30.49,SE,133,0.0,22.0,92,0.00,,,0.00,Wunderground v.1.15,2013-05-05 03:10:00,
2013-05-05 00:20:00,32.7,31.2,30.49,SSE,158,0.0,22.0,94,0.00,,,0.00,Wunderground v.1.15,2013-05-05 03:20:00,
2013-05-05 00:30:00,34.8,33.0,30.49,SSE,158,0.0,22.0,93,0.00,,,0.00,Wunderground v.1.15,2013-05-05 03:30:00,
2013-05-05 00:40:00,35.7,33.3,30.49,SSW,194,0.0,22.0,91,0.00,,,0.00,Wunderground v.1.15,2013-05-05 03:40:00,
2013-05-05 00:50:00,35.7,32.8,30.49,SSE,166,0.0,22.0,89,0.00,,,0.00,Wunderground v.1.15,2013-05-05 03:50:00,
2013-05-05 01:00:00,34.3,31.4,30.48,SSE,166,0.0,22.0,89,0.00,,,0.00,Wunderground v.1.15,2013-05-05 04:00:00,
2013-05-05 01:10:00,32.9,30.0,30.48,SSE,166,0.0,22.0,89,0.00,,,0.00,Wunderground v.1.15,2013-05-05 04:10:00,
2013-05-05 01:20:00,33.2,31.7,30.47,SSE,166,0.0,22.0,94,0.00,,,0.00,Wunderground v.1.15,2013-05-05 04:20:00,
2013-05-05 01:30:00,34.9,33.6,30.47,SSE,160,1.0,22.0,95,0.00,,,0.00,Wunderground v.1.15,2013-05-05 04:30:00,
2013-05-05 01:40:00,36.2,34.4,30.47,South,173,2.0,22.0,93,0.00,,,0.00,Wunderground v.1.15,2013-05-05 04:40:00,
2013-05-05 01:50:00,37.1,34.4,30.47,SSE,151,2.0,2.0,90,0.00,,,0.00,Wunderground v.1.15,2013-05-05 04:50:00,
2013-05-05 02:00:00,37.3,34.1,30.46,South,172,2.0,22.0,88,0.00,,,0.00,Wunderground v.1.15,2013-05-05 05:00:00,
2013-05-05 02:10:00,37.7,34.5,30.46,South,177,2.0,2.0,88,0.00,,,0.00,Wunderground v.1.15,2013-05-05 05:10:00,
2013-05-05 02:20:00,37.6,34.1,30.46,SE,132,2.0,2.0,87,0.00,,,0.00,Wunderground v.1.15,2013-05-05 05:20:00,
2013-05-05 02:30:00,37.8,34.8,30.46,SSW,194,2.0,22.0,89,0.00,,,0.00,Wunderground v.1.15,2013-05-05 05:30:00,
2013-05-05 02:40:00,38.1,34.9,30.46,South,177,2.0,22.0,88,0.00,,,0.00,Wunderground v.1.15,2013-05-05 05:40:00,
2013-05-05 02:50:00,38.1,35.1,30.46,SSW,208,2.0,22.0,89,0.00,,,0.00,Wunderground v.1.15,2013-05-05 05:50:00,
2013-05-05 03:00:00,38.4,35.2,30.45,SSE,159,2.0,22.0,88,0.00,,,0.00,Wunderground v.1.15,2013-05-05 06:00:00,
2013-05-05 03:10:00,38.5,35.5,30.46,SSE,152,3.0,22.0,89,0.00,,,0.00,Wunderground v.1.15,2013-05-05 06:10:00,
2013-05-05 03:20:00,38.8,35.8,30.46,SSW,198,3.0,3.0,89,0.00,,,0.00,Wunderground v.1.15,2013-05-05 06:20:00,
2013-05-05 03:30:00,38.8,35.8,30.45,South,172,3.0,22.0,89,0.00,,,0.00,Wunderground v.1.15,2013-05-05 06:30:00,
2013-05-05 03:40:00,38.7,35.7,30.45,South,173,3.0,22.0,89,0.00,,,0.00,Wunderground v.1.15,2013-05-05 06:40:00,
2013-05-05 03:50:00,38.8,35.8,30.45,SSE,150,3.0,22.0,89,0.00,,,0.00,Wunderground v.1.15,2013-05-05 06:50:00,
2013-05-05 04:00:00,38.8,35.8,30.45,SSW,195,3.0,22.0,89,0.00,,,0.00,Wunderground v.1.15,2013-05-05 07:00:00,
2013-05-05 04:10:00,38.8,35.8,30.45,SSW,212,3.0,3.0,89,0.00,,,0.00,Wunderground v.1.15,2013-05-05 07:10:00,
2013-05-05 04:20:00,38.6,35.6,30.45,South,173,3.0,3.0,89,0.00,,,0.00,Wunderground v.1.15,2013-05-05 07:20:00,
2013-05-05 04:30:00,38.6,35.9,30.45,South,187,3.0,22.0,90,0.00,,,0.00,Wunderground v.1.15,2013-05-05 07:30:00,
2013-05-05 04:40:00,38.7,35.7,30.44,SSE,158,3.0,22.0,89,0.00,,,0.00,Wunderground v.1.15,2013-05-05 07:40:00,
2013-05-05 04:50:00,39.1,35.8,30.44,South,179,5.0,5.0,88,0.00,,,0.00,Wunderground v.1.15,2013-05-05 07:50:00,
2013-05-05 05:00:00,39.3,35.8,30.44,South,184,5.0,22.0,87,0.00,,,0.00,Wunderground v.1.15,2013-05-05 08:00:00,
2013-05-05 05:10:00,39.5,35.7,30.44,South,180,6.0,6.0,86,0.00,,,0.00,Wunderground v.1.15,2013-05-05 08:10:00,
2013-05-05 05:20:00,39.6,35.5,30.44,SSW,203,6.0,22.0,85,0.00,,,0.00,Wunderground v.1.15,2013-05-05 08:20:00,
2013-05-05 05:30:00,39.7,35.6,30.44,SSW,196,6.0,6.0,85,0.00,,,0.00,Wunderground v.1.15,2013-05-05 08:30:00,
2013-05-05 05:40:00,39.5,35.4,30.44,SSW,195,5.0,22.0,85,0.00,,,0.00,Wunderground v.1.15,2013-05-05 08:40:00,
2013-05-05 05:50:00,39.3,35.2,30.44,SSE,165,5.0,22.0,85,0.00,,,0.00,Wunderground v.1.15,2013-05-05 08:50:00,
2013-05-05 06:00:00,39.1,35.3,30.44,South,176,5.0,5.0,86,0.00,,,0.00,Wunderground v.1.15,2013-05-05 09:00:00,
2013-05-05 06:10:00,39.2,35.4,30.44,South,181,5.0,5.0,86,0.00,,,0.00,Wunderground v.1.15,2013-05-05 09:10:00,
2013-05-05 06:20:00,39.4,35.6,30.44,SSW,197,5.0,22.0,86,0.00,,,0.00,Wunderground v.1.15,2013-05-05 09:20:00,
2013-05-05 06:30:00,39.9,35.8,30.44,SSW,193,5.0,22.0,85,0.00,,,0.00,Wunderground v.1.15,2013-05-05 09:30:00,
2013-05-05 06:40:00,40.6,36.1,30.44,SSW,201,5.0,22.0,84,0.00,,,0.00,Wunderground v.1.15,2013-05-05 09:40:00,
2013-05-05 06:50:00,41.1,36.3,30.44,WSW,244,6.0,6.0,83,0.00,,,0.00,Wunderground v.1.15,2013-05-05 09:50:00,
2013-05-05 07:00:00,41.7,36.9,30.44,SSW,198,6.0,22.0,83,0.00,,,0.00,Wunderground v.1.15,2013-05-05 10:00:00,
2013-05-05 07:10:00,42.3,37.2,30.44,South,187,7.0,7.0,82,0.00,,,0.00,Wunderground v.1.15,2013-05-05 10:10:00,
2013-05-05 07:20:00,43.0,37.6,30.44,SW,232,6.0,6.0,81,0.00,,,0.00,Wunderground v.1.15,2013-05-05 10:20:00,
2013-05-05 07:30:00,43.8,38.3,30.45,South,191,5.0,22.0,81,0.00,,,0.00,Wunderground v.1.15,2013-05-05 10:30:00,
2013-05-05 07:40:00,44.6,38.5,30.44,SSW,198,6.0,6.0,79,0.00,,,0.00,Wunderground v.1.15,2013-05-05 10:40:00,
2013-05-05 07:50:00,45.5,39.0,30.44,South,176,6.0,22.0,78,0.00,,,0.00,Wunderground v.1.15,2013-05-05 10:50:00,
2013-05-05 08:00:00,46.2,39.4,30.44,SSE,164,6.0,22.0,77,0.00,,,0.00,Wunderground v.1.15,2013-05-05 11:00:00,
2013-05-05 08:10:00,46.7,39.2,30.44,SSW,203,8.0,22.0,75,0.00,,,0.00,Wunderground v.1.15,2013-05-05 11:10:00,
2013-05-05 08:20:00,47.8,40.3,30.44,SSW,193,6.0,22.0,75,0.00,,,0.00,Wunderground v.1.15,2013-05-05 11:20:00,
2013-05-05 08:30:00,48.4,40.1,30.44,SSW,207,8.0,8.0,73,0.00,,,0.00,Wunderground v.1.15,2013-05-05 11:30:00,
2013-05-05 08:40:00,49.0,40.4,30.43,SSW,198,8.0,22.0,72,0.00,,,0.00,Wunderground v.1.15,2013-05-05 11:40:00,
2013-05-05 08:50:00,50.0,41.0,30.44,SSW,204,8.0,22.0,71,0.00,,,0.00,Wunderground v.1.15,2013-05-05 11:50:00,
2013-05-05 09:00:00,50.8,40.6,30.43,SSW,203,8.0,22.0,68,0.00,,,0.00,Wunderground v.1.15,2013-05-05 12:00:00,
2013-05-05 09:10:00,51.5,40.9,30.44,ESE,122,8.0,8.0,67,0.00,,,0.00,Wunderground v.1.15,2013-05-05 12:10:00,
2013-05-05 09:20:00,52.4,41.8,30.44,South,183,7.0,7.0,67,0.00,,,0.00,Wunderground v.1.15,2013-05-05 12:20:00,
2013-05-05 09:30:00,52.9,40.6,30.44,SW,226,7.0,22.0,63,0.00,,,0.00,Wunderground v.1.15,2013-05-05 12:30:00,
2013-05-05 09:40:00,53.6,42.1,30.44,South,187,7.0,22.0,65,0.00,,,0.00,Wunderground v.1.15,2013-05-05 12:40:00,
2013-05-05 09:50:00,54.3,41.6,30.44,South,184,7.0,22.0,62,0.00,,,0.00,Wunderground v.1.15,2013-05-05 12:50:00,
2013-05-05 10:00:00,54.5,42.2,30.44,South,191,8.0,8.0,63,0.00,,,0.00,Wunderground v.1.15,2013-05-05 13:00:00,
2013-05-05 10:10:00,55.5,42.7,30.44,South,190,7.0,22.0,62,0.00,,,0.00,Wunderground v.1.15,2013-05-05 13:10:00,
2013-05-05 10:20:00,55.6,42.8,30.43,South,183,6.0,22.0,62,0.00,,,0.00,Wunderground v.1.15,2013-05-05 13:20:00,
2013-05-05 10:30:00,55.9,42.2,30.43,SSE,166,7.0,22.0,60,0.00,,,0.00,Wunderground v.1.15,2013-05-05 13:30:00,
2013-05-05 10:40:00,56.4,42.7,30.43,South,186,7.0,7.0,60,0.00,,,0.00,Wunderground v.1.15,2013-05-05 13:40:00,
2013-05-05 10:50:00,56.6,42.4,30.43,SE,124,7.0,7.0,59,0.00,,,0.00,Wunderground v.1.15,2013-05-05 13:50:00,
2013-05-05 11:00:00,57.6,42.9,30.43,South,174,6.0,6.0,58,0.00,,,0.00,Wunderground v.1.15,2013-05-05 14:00:00,
2013-05-05 11:10:00,58.1,42.5,30.42,South,183,6.0,22.0,56,0.00,,,0.00,Wunderground v.1.15,2013-05-05 14:10:00,
2013-05-05 11:20:00,58.8,41.7,30.42,South,191,7.0,22.0,53,0.00,,,0.00,Wunderground v.1.15,2013-05-05 14:20:00,
2013-05-05 11:30:00,59.3,41.2,30.42,WSW,240,6.0,6.0,51,0.00,,,0.00,Wunderground v.1.15,2013-05-05 14:30:00,
2013-05-05 11:40:00,60.1,41.4,30.42,SSE,160,6.0,22.0,50,0.00,,,0.00,Wunderground v.1.15,2013-05-05 14:40:00,
2013-05-05 11:50:00,60.4,41.7,30.42,SSW,200,6.0,22.0,50,0.00,,,0.00,Wunderground v.1.15,2013-05-05 14:50:00,
2013-05-05 12:00:00,60.5,42.3,30.41,SSW,208,6.0,6.0,51,0.00,,,0.00,Wunderground v.1.15,2013-05-05 15:00:00,
2013-05-05 12:10:00,61.1,42.3,30.40,SSW,203,6.0,6.0,50,0.00,,,0.00,Wunderground v.1.15,2013-05-05 15:10:00,
2013-05-05 12:20:00,61.1,43.8,30.40,SSE,165,7.0,22.0,53,0.00,,,0.00,Wunderground v.1.15,2013-05-05 15:20:00,
2013-05-05 12:30:00,61.2,42.9,30.40,South,177,6.0,22.0,51,0.00,,,0.00,Wunderground v.1.15,2013-05-05 15:30:00,
2013-05-05 12:40:00,61.6,38.9,30.39,SSW,211,7.0,22.0,43,0.00,,,0.00,Wunderground v.1.15,2013-05-05 15:40:00,
2013-05-05 12:50:00,62.2,42.3,30.39,South,176,7.0,7.0,48,0.00,,,0.00,Wunderground v.1.15,2013-05-05 15:50:00,
2013-05-05 13:00:00,62.6,41.5,30.39,South,186,6.0,22.0,46,0.00,,,0.00,Wunderground v.1.15,2013-05-05 16:00:00,
2013-05-05 13:10:00,63.0,40.1,30.38,South,188,7.0,22.0,43,0.00,,,0.00,Wunderground v.1.15,2013-05-05 16:10:00,
2013-05-05 13:20:00,63.1,39.6,30.38,SSE,159,8.0,8.0,42,0.00,,,0.00,Wunderground v.1.15,2013-05-05 16:20:00,
2013-05-05 13:30:00,63.2,42.1,30.38,SSW,198,8.0,22.0,46,0.00,,,0.00,Wunderground v.1.15,2013-05-05 16:30:00,
2013-05-05 13:40:00,63.8,41.5,30.38,SW,222,7.0,7.0,44,0.00,,,0.00,Wunderground v.1.15,2013-05-05 16:40:00,
2013-05-05 13:50:00,64.1,38.6,30.38,SSW,199,8.0,22.0,39,0.00,,,0.00,Wunderground v.1.15,2013-05-05 16:50:00,
2013-05-05 14:00:00,64.3,38.8,30.38,South,174,9.0,22.0,39,0.00,,,0.00,Wunderground v.1.15,2013-05-05 17:00:00,
2013-05-05 14:10:00,64.7,39.2,30.38,South,191,8.0,22.0,39,0.00,,,0.00,Wunderground v.1.15,2013-05-05 17:10:00,
2013-05-05 14:20:00,64.9,40.0,30.37,South,184,9.0,9.0,40,0.00,,,0.00,Wunderground v.1.15,2013-05-05 17:20:00,
2013-05-05 14:30:00,65.8,42.7,30.37,SSE,159,8.0,8.0,43,0.00,,,0.00,Wunderground v.1.15,2013-05-05 17:30:00,
2013-05-05 14:40:00,66.3,42.5,30.37,SSW,195,7.0,22.0,42,0.00,,,0.00,Wunderground v.1.15,2013-05-05 17:40:00,
2013-05-05 14:50:00,66.3,41.9,30.36,SSE,148,7.0,22.0,41,0.00,,,0.00,Wunderground v.1.15,2013-05-05 17:50:00,
2013-05-05 15:00:00,66.2,42.4,30.36,SE,140,7.0,22.0,42,0.00,,,0.00,Wunderground v.1.15,2013-05-05 18:00:00,
2013-05-05 15:10:00,66.8,43.6,30.36,SSW,193,7.0,22.0,43,0.00,,,0.00,Wunderground v.1.15,2013-05-05 18:10:00,
2013-05-05 15:20:00,67.2,42.7,30.36,SSW,207,7.0,22.0,41,0.00,,,0.00,Wunderground v.1.15,2013-05-05 18:20:00,
2013-05-05 15:30:00,66.9,41.8,30.36,South,185,8.0,22.0,40,0.00,,,0.00,Wunderground v.1.15,2013-05-05 18:30:00,
2013-05-05 15:40:00,67.2,42.0,30.35,SE,146,7.0,22.0,40,0.00,,,0.00,Wunderground v.1.15,2013-05-05 18:40:00,
2013-05-05 15:50:00,67.5,41.0,30.35,South,172,8.0,22.0,38,0.00,,,0.00,Wunderground v.1.15,2013-05-05 18:50:00,
2013-05-05 16:00:00,67.3,41.5,30.35,South,177,9.0,22.0,39,0.00,,,0.00,Wunderground v.1.15,2013-05-05 19:00:00,
2013-05-05 16:10:00,68.0,41.4,30.35,SSW,195,6.0,6.0,38,0.00,,,0.00,Wunderground v.1.15,2013-05-05 19:10:00,
2013-05-05 16:20:00,68.4,41.1,30.34,SSW,200,6.0,22.0,37,0.00,,,0.00,Wunderground v.1.15,2013-05-05 19:20:00,
2013-05-05 16:30:00,68.5,41.2,30.34,South,191,7.0,7.0,37,0.00,,,0.00,Wunderground v.1.15,2013-05-05 19:30:00,
2013-05-05 16:40:00,68.6,40.6,30.34,SSE,148,7.0,22.0,36,0.00,,,0.00,Wunderground v.1.15,2013-05-05 19:40:00,
2013-05-05 16:50:00,68.5,41.2,30.34,South,176,8.0,22.0,37,0.00,,,0.00,Wunderground v.1.15,2013-05-05 19:50:00,
2013-05-05 17:00:00,68.4,40.4,30.34,SSW,204,8.0,8.0,36,0.00,,,0.00,Wunderground v.1.15,2013-05-05 20:00:00,
2013-05-05 17:10:00,68.8,42.8,30.34,SE,146,6.0,22.0,39,0.00,,,0.00,Wunderground v.1.15,2013-05-05 20:10:00,
2013-05-05 17:20:00,68.9,41.5,30.34,South,188,6.0,6.0,37,0.00,,,0.00,Wunderground v.1.15,2013-05-05 20:20:00,
2013-05-05 17:30:00,68.4,41.8,30.34,SE,146,6.0,6.0,38,0.00,,,0.00,Wunderground v.1.15,2013-05-05 20:30:00,
2013-05-05 17:40:00,68.0,40.7,30.34,SSE,162,7.0,7.0,37,0.00,,,0.00,Wunderground v.1.15,2013-05-05 20:40:00,
2013-05-05 17:50:00,68.0,42.8,30.34,SSE,156,6.0,6.0,40,0.00,,,0.00,Wunderground v.1.15,2013-05-05 20:50:00,
2013-05-05 18:00:00,68.2,41.6,30.33,South,169,5.0,5.0,38,0.00,,,0.00,Wunderground v.1.15,2013-05-05 21:00:00,
2013-05-05 18:10:00,67.9,40.7,30.33,SSE,147,6.0,22.0,37,0.00,,,0.00,Wunderground v.1.15,2013-05-05 21:10:00,
2013-05-05 18:20:00,67.7,41.2,30.33,South,170,6.0,6.0,38,0.00,,,0.00,Wunderground v.1.15,2013-05-05 21:20:00,
2013-05-05 18:30:00,67.6,41.7,30.33,SSW,204,5.0,5.0,39,0.00,,,0.00,Wunderground v.1.15,2013-05-05 21:30:00,
2013-05-05 18:40:00,67.4,41.6,30.33,SSE,163,5.0,22.0,39,0.00,,,0.00,Wunderground v.1.15,2013-05-05 21:40:00,
2013-05-05 18:50:00,66.7,40.9,30.33,SSE,155,6.0,6.0,39,0.00,,,0.00,Wunderground v.1.15,2013-05-05 21:50:00,
2013-05-05 19:00:00,66.3,41.2,30.33,South,183,4.0,4.0,40,0.00,,,0.00,Wunderground v.1.15,2013-05-05 22:00:00,
2013-05-05 19:10:00,65.8,40.8,30.33,South,170,5.0,5.0,40,0.00,,,0.00,Wunderground v.1.15,2013-05-05 22:10:00,
2013-05-05 19:20:00,65.0,40.7,30.33,South,180,3.0,22.0,41,0.00,,,0.00,Wunderground v.1.15,2013-05-05 22:20:00,
2013-05-05 19:30:00,64.0,40.4,30.33,South,187,3.0,22.0,42,0.00,,,0.00,Wunderground v.1.15,2013-05-05 22:30:00,
2013-05-05 19:40:00,62.7,40.5,30.33,SSE,162,4.0,22.0,44,0.00,,,0.00,Wunderground v.1.15,2013-05-05 22:40:00,
2013-05-05 19:50:00,61.5,40.5,30.33,SSE,157,4.0,22.0,46,0.00,,,0.00,Wunderground v.1.15,2013-05-05 22:50:00,
2013-05-05 20:00:00,60.2,41.0,30.33,SSE,163,4.0,4.0,49,0.00,,,0.00,Wunderground v.1.15,2013-05-05 23:00:00,
2013-05-05 20:10:00,58.6,40.5,30.33,South,170,3.0,22.0,51,0.00,,,0.00,Wunderground v.1.15,2013-05-05 23:10:00,
2013-05-05 20:20:00,57.4,40.4,30.33,South,170,3.0,3.0,53,0.00,,,0.00,Wunderground v.1.15,2013-05-05 23:20:00,
2013-05-05 20:30:00,56.5,40.0,30.33,SSE,153,4.0,4.0,54,0.00,,,0.00,Wunderground v.1.15,2013-05-05 23:30:00,
2013-05-05 20:40:00,55.7,39.8,30.33,SSE,158,4.0,4.0,55,0.00,,,0.00,Wunderground v.1.15,2013-05-05 23:40:00,
2013-05-05 20:50:00,55.1,39.7,30.33,South,176,4.0,4.0,56,0.00,,,0.00,Wunderground v.1.15,2013-05-05 23:50:00,
2013-05-05 21:00:00,54.5,39.6,30.33,South,175,3.0,22.0,57,0.00,,,0.00,Wunderground v.1.15,2013-05-06 00:00:00,
2013-05-05 21:10:00,53.9,39.5,30.34,South,173,3.0,22.0,58,0.00,,,0.00,Wunderground v.1.15,2013-05-06 00:10:00,
2013-05-05 21:20:00,53.4,39.4,30.34,South,177,3.0,22.0,59,0.00,,,0.00,Wunderground v.1.15,2013-05-06 00:20:00,
2013-05-05 21:30:00,52.9,39.4,30.34,South,187,3.0,22.0,60,0.00,,,0.00,Wunderground v.1.15,2013-05-06 00:30:00,
2013-05-05 21:40:00,52.3,39.2,30.34,SSE,153,3.0,3.0,61,0.00,,,0.00,Wunderground v.1.15,2013-05-06 00:40:00,
2013-05-05 21:50:00,51.8,38.8,30.34,SSE,165,3.0,22.0,61,0.00,,,0.00,Wunderground v.1.15,2013-05-06 00:50:00,
2013-05-05 22:00:00,51.7,39.1,30.34,SSE,159,4.0,22.0,62,0.00,,,0.00,Wunderground v.1.15,2013-05-06 01:00:00,
2013-05-05 22:10:00,51.7,39.1,30.35,South,186,4.0,22.0,62,0.00,,,0.00,Wunderground v.1.15,2013-05-06 01:10:00,
2013-05-05 22:20:00,51.4,39.2,30.35,South,183,3.0,22.0,63,0.00,,,0.00,Wunderground v.1.15,2013-05-06 01:20:00,
2013-05-05 22:30:00,51.1,39.3,30.35,SE,139,4.0,4.0,64,0.00,,,0.00,Wunderground v.1.15,2013-05-06 01:30:00,
2013-05-05 22:40:00,50.5,39.6,30.35,SSE,159,4.0,4.0,66,0.00,,,0.00,Wunderground v.1.15,2013-05-06 01:40:00,
2013-05-05 22:50:00,50.1,39.6,30.35,SSE,152,3.0,3.0,67,0.00,,,0.00,Wunderground v.1.15,2013-05-06 01:50:00,
2013-05-05 23:00:00,49.7,39.2,30.35,SSE,150,3.0,22.0,67,0.00,,,0.00,Wunderground v.1.15,2013-05-06 02:00:00,
2013-05-05 23:10:00,49.3,39.2,30.36,SSE,156,3.0,22.0,68,0.00,,,0.00,Wunderground v.1.15,2013-05-06 02:10:00,
2013-05-05 23:20:00,49.1,39.4,30.36,South,172,3.0,22.0,69,0.00,,,0.00,Wunderground v.1.15,2013-05-06 02:20:00,
2013-05-05 23:30:00,49.1,40.1,30.36,South,179,4.0,22.0,71,0.00,,,0.00,Wunderground v.1.15,2013-05-06 02:30:00,
2013-05-05 23:40:00,49.2,40.6,30.36,SE,146,5.0,22.0,72,0.00,,,0.00,Wunderground v.1.15,2013-05-06 02:40:00,
2013-05-05 23:50:00,49.2,40.6,30.36,South,184,5.0,5.0,72,0.00,,,0.00,Wunderground v.1.15,2013-05-06 02:50:00,